createdAt,value
2023-02-24T00:02:04.232Z,11.30
2023-02-24T00:04:35.001Z,11.20
2023-02-24T00:07:03.456Z,11.20
2023-02-24T00:09:33.635Z,11.20
2023-02-24T00:12:09.261Z,11.20
2023-02-24T00:14:38.774Z,11.20
2023-02-24T00:19:58.559Z,11.20
2023-02-24T00:22:26.304Z,11.10
2023-02-24T00:24:54.753Z,11.10
2023-02-24T00:27:24.097Z,11.00
2023-02-24T00:29:51.899Z,11.00
2023-02-24T00:32:20.320Z,11.00
2023-02-24T00:34:48.881Z,11.00
2023-02-24T00:37:17.212Z,10.90
2023-02-24T00:39:46.122Z,10.90
2023-02-24T00:42:15.306Z,10.90
2023-02-24T00:44:47.467Z,10.90
2023-02-24T00:47:18.658Z,10.90
2023-02-24T00:49:46.628Z,10.90
2023-02-24T00:52:18.014Z,10.90
2023-02-24T00:54:48.141Z,10.80
2023-02-24T00:57:17.982Z,10.80
2023-02-24T00:59:52.700Z,10.80
2023-02-24T01:02:20.964Z,10.80
2023-02-24T01:04:50.197Z,10.80
2023-02-24T01:07:18.069Z,10.80
2023-02-24T01:09:45.919Z,10.80
2023-02-24T01:12:35.441Z,10.80
2023-02-24T01:15:17.034Z,10.80
2023-02-24T01:17:45.473Z,10.80
2023-02-24T01:20:17.297Z,10.80
2023-02-24T01:22:53.723Z,10.80
2023-02-24T01:25:21.612Z,10.80
2023-02-24T01:27:49.630Z,10.80
2023-02-24T01:30:18.705Z,10.80
2023-02-24T01:32:48.672Z,10.80
2023-02-24T01:35:19.831Z,10.80
2023-02-24T01:37:49.596Z,10.90
2023-02-24T01:40:19.708Z,10.90
2023-02-24T01:42:47.887Z,10.90
2023-02-24T01:45:29.698Z,10.90
2023-02-24T01:48:00.845Z,10.90
2023-02-24T01:50:29.581Z,10.90
2023-02-24T01:53:04.110Z,10.90
2023-02-24T01:55:38.152Z,10.90
2023-02-24T01:58:09.894Z,10.90
2023-02-24T02:00:42.253Z,10.80
2023-02-24T02:03:26.517Z,10.80
2023-02-24T02:06:04.219Z,10.80
2023-02-24T02:08:33.530Z,10.80
2023-02-24T02:11:05.006Z,10.80
2023-02-24T02:13:41.589Z,10.80
2023-02-24T02:16:31.565Z,10.70
2023-02-24T02:19:08.862Z,10.70
2023-02-24T02:21:49.313Z,10.60
2023-02-24T02:24:35.682Z,10.60
2023-02-24T02:27:28.529Z,10.60
2023-02-24T02:30:25.476Z,10.60
2023-02-24T02:33:05.001Z,10.60
2023-02-24T02:36:00.984Z,10.60
2023-02-24T02:38:35.502Z,10.60
2023-02-24T02:41:16.221Z,10.60
2023-02-24T02:43:53.968Z,10.60
2023-02-24T02:46:41.866Z,10.60
2023-02-24T02:49:16.419Z,10.60
2023-02-24T02:51:52.977Z,10.60
2023-02-24T02:54:27.673Z,10.60
2023-02-24T02:57:00.389Z,10.60
2023-02-24T02:59:31.803Z,10.60
2023-02-24T03:02:21.062Z,10.60
2023-02-24T03:04:54.308Z,10.50
2023-02-24T03:07:25.733Z,10.60
2023-02-24T03:09:57.580Z,10.50
2023-02-24T03:12:29.953Z,10.60
2023-02-24T03:15:02.357Z,10.50
2023-02-24T03:17:35.104Z,10.60
2023-02-24T03:23:17.694Z,10.60
2023-02-24T03:25:49.404Z,10.60
2023-02-24T03:28:23.910Z,10.60
2023-02-24T03:30:59.076Z,10.60
2023-02-24T03:33:30.615Z,10.50
2023-02-24T03:36:00.620Z,10.50
2023-02-24T03:38:31.429Z,10.50
2023-02-24T03:41:02.595Z,10.40
2023-02-24T03:43:35.247Z,10.50
2023-02-24T03:46:06.190Z,10.50
2023-02-24T03:48:37.637Z,10.50
2023-02-24T03:51:05.920Z,10.50
2023-02-24T03:54:03.045Z,10.40
2023-02-24T03:56:47.374Z,10.40
2023-02-24T03:59:19.640Z,10.50
2023-02-24T04:01:55.884Z,10.50
2023-02-24T04:04:49.048Z,10.50
2023-02-24T04:07:28.640Z,10.50
2023-02-24T04:10:13.145Z,10.50
2023-02-24T04:12:52.524Z,10.50
2023-02-24T04:15:24.229Z,10.50
2023-02-24T04:20:36.757Z,10.50
2023-02-24T04:23:09.034Z,10.50
2023-02-24T04:25:38.793Z,10.50
2023-02-24T04:28:08.559Z,10.40
2023-02-24T04:30:43.194Z,10.40
2023-02-24T04:33:12.278Z,10.40
2023-02-24T04:35:41.010Z,10.40
2023-02-24T04:38:09.084Z,10.40
2023-02-24T04:40:40.723Z,10.40
2023-02-24T04:43:09.504Z,10.50
2023-02-24T04:45:39.582Z,10.50
2023-02-24T04:48:09.972Z,10.40
2023-02-24T04:50:38.640Z,10.50
2023-02-24T04:53:13.208Z,10.40
2023-02-24T04:55:50.496Z,10.50
2023-02-24T04:58:21.537Z,10.50
2023-02-24T05:00:58.889Z,10.50
2023-02-24T05:03:29.946Z,10.50
2023-02-24T05:06:00.565Z,10.50
2023-02-24T05:08:30.408Z,10.50
2023-02-24T05:11:19.373Z,10.50
2023-02-24T05:13:47.421Z,10.40
2023-02-24T05:16:18.238Z,10.50
2023-02-24T05:18:46.542Z,10.50
2023-02-24T05:21:36.803Z,10.40
2023-02-24T05:24:07.535Z,10.40
2023-02-24T05:26:38.236Z,10.40
2023-02-24T05:29:07.543Z,10.40
2023-02-24T05:31:49.587Z,10.40
2023-02-24T05:34:17.526Z,10.40
2023-02-24T05:36:46.321Z,10.40
2023-02-24T05:39:15.845Z,10.30
2023-02-24T05:41:43.797Z,10.30
2023-02-24T05:44:14.552Z,10.30
2023-02-24T05:46:45.341Z,10.30
2023-02-24T05:49:21.224Z,10.40
2023-02-24T05:51:56.741Z,10.30
2023-02-24T05:54:30.032Z,10.40
2023-02-24T05:57:03.847Z,10.40
2023-02-24T05:59:33.097Z,10.40
2023-02-24T06:02:09.302Z,10.40
2023-02-24T06:04:40.267Z,10.40
2023-02-24T06:07:14.220Z,10.40
2023-02-24T06:09:43.440Z,10.40
2023-02-24T06:12:12.395Z,10.30
2023-02-24T06:14:40.137Z,10.30
2023-02-24T06:17:08.919Z,10.30
2023-02-24T06:19:36.971Z,10.30
2023-02-24T06:22:05.603Z,10.30
2023-02-24T06:24:33.857Z,10.30
2023-02-24T06:27:03.915Z,10.40
2023-02-24T06:29:32.036Z,10.40
2023-02-24T06:32:00.487Z,10.40
2023-02-24T06:37:15.588Z,10.50
2023-02-24T06:39:45.424Z,10.50
2023-02-24T06:42:14.082Z,10.50
2023-02-24T06:44:43.582Z,10.60
2023-02-24T06:47:13.557Z,10.60
2023-02-24T06:49:43.665Z,10.60
2023-02-24T06:52:12.150Z,10.60
2023-02-24T06:54:43.293Z,10.60
2023-02-24T06:57:12.611Z,10.70
2023-02-24T06:59:41.632Z,10.70
2023-02-24T07:02:13.847Z,10.70
2023-02-24T07:04:44.843Z,10.80
2023-02-24T07:07:17.257Z,10.80
2023-02-24T07:09:48.524Z,10.80
2023-02-24T07:12:17.931Z,10.80
2023-02-24T07:14:48.246Z,10.80
2023-02-24T07:17:19.088Z,10.80
2023-02-24T07:22:33.335Z,10.80
2023-02-24T07:25:02.129Z,10.80
2023-02-24T07:27:30.459Z,10.80
2023-02-24T07:29:59.910Z,10.80
2023-02-24T07:32:28.134Z,10.90
2023-02-24T07:34:55.796Z,10.90
2023-02-24T07:37:25.609Z,10.90
2023-02-24T07:39:53.415Z,10.90
2023-02-24T07:42:21.240Z,10.90
2023-02-24T07:44:51.844Z,10.90
2023-02-24T07:47:23.688Z,11.00
2023-02-24T07:49:52.053Z,11.00
2023-02-24T07:52:19.833Z,11.00
2023-02-24T07:54:50.848Z,11.00
2023-02-24T07:57:19.079Z,11.10
2023-02-24T07:59:48.058Z,11.10
2023-02-24T08:02:17.174Z,11.00
2023-02-24T08:04:47.798Z,11.00
2023-02-24T08:07:16.259Z,11.00
2023-02-24T08:09:51.887Z,11.00
2023-02-24T08:12:30.366Z,10.90
2023-02-24T08:15:03.043Z,11.00
2023-02-24T08:17:30.964Z,11.00
2023-02-24T08:20:15.867Z,10.90
2023-02-24T08:22:47.437Z,10.90
2023-02-24T08:25:18.321Z,10.90
2023-02-24T08:28:05.139Z,10.90
2023-02-24T08:30:25.754Z,11.00
2023-02-24T08:32:57.360Z,11.00
2023-02-24T08:35:30.385Z,11.10
2023-02-24T08:38:04.969Z,11.10
2023-02-24T08:40:37.666Z,11.10
2023-02-24T08:43:19.892Z,11.20
2023-02-24T08:45:54.216Z,11.20
2023-02-24T08:48:38.102Z,11.20
2023-02-24T08:51:16.324Z,11.20
2023-02-24T08:53:47.329Z,11.30
2023-02-24T08:56:18.431Z,11.30
2023-02-24T08:58:49.316Z,11.30
2023-02-24T09:01:25.808Z,11.40
2023-02-24T09:03:57.922Z,11.40
2023-02-24T09:06:38.659Z,11.50
2023-02-24T09:09:18.811Z,11.50
2023-02-24T09:11:55.984Z,11.50
2023-02-24T09:14:28.932Z,11.50
2023-02-24T09:17:11.981Z,11.50
2023-02-24T09:19:53.519Z,11.50
2023-02-24T09:22:33.515Z,11.50
2023-02-24T09:25:21.933Z,11.50
2023-02-24T09:27:56.509Z,11.50
2023-02-24T09:30:39.155Z,11.60
2023-02-24T09:33:18.542Z,11.60
2023-02-24T09:35:56.460Z,11.60
2023-02-24T09:38:26.503Z,11.60
2023-02-24T09:40:54.365Z,11.60
2023-02-24T09:43:25.913Z,11.60
2023-02-24T09:46:00.384Z,11.70
2023-02-24T09:48:33.077Z,11.70
2023-02-24T09:51:05.749Z,11.70
2023-02-24T09:53:46.957Z,11.60
2023-02-24T09:59:17.791Z,11.70
2023-02-24T10:02:13.669Z,11.70
2023-02-24T10:05:02.013Z,11.80
2023-02-24T10:07:37.928Z,11.90
2023-02-24T10:10:30.680Z,11.90
2023-02-24T10:13:22.218Z,12.00
2023-02-24T10:15:57.848Z,12.00
2023-02-24T10:18:48.828Z,12.00
2023-02-24T10:21:24.852Z,12.00
2023-02-24T10:23:59.937Z,12.10
2023-02-24T10:26:36.980Z,12.20
2023-02-24T10:29:22.000Z,12.20
2023-02-24T10:31:55.015Z,12.20
2023-02-24T10:34:25.602Z,12.20
2023-02-24T10:36:54.122Z,12.30
2023-02-24T10:39:25.942Z,12.40
2023-02-24T10:42:01.530Z,12.50
2023-02-24T10:44:36.862Z,12.60
2023-02-24T10:47:30.832Z,12.70
2023-02-24T10:50:05.638Z,12.80
2023-02-24T10:52:37.981Z,12.90
2023-02-24T10:55:14.771Z,12.90
2023-02-24T10:57:58.647Z,13.00
2023-02-24T11:00:22.857Z,13.10
2023-02-24T11:03:01.036Z,13.10
2023-02-24T11:05:46.438Z,13.10
2023-02-24T11:08:36.013Z,13.10
2023-02-24T11:11:29.798Z,13.10
2023-02-24T11:14:18.293Z,13.10
2023-02-24T11:17:09.558Z,13.20
2023-02-24T11:19:50.183Z,13.40
2023-02-24T11:22:28.076Z,13.60
2023-02-24T11:24:55.902Z,13.80
2023-02-24T11:27:26.640Z,14.00
2023-02-24T11:30:08.017Z,14.20
2023-02-24T11:33:01.836Z,14.30
2023-02-24T11:35:41.074Z,14.50
2023-02-24T11:38:23.736Z,14.70
2023-02-24T11:40:55.126Z,14.90
2023-02-24T11:43:26.769Z,15.00
2023-02-24T11:46:19.929Z,15.00
2023-02-24T11:48:56.022Z,15.00
2023-02-24T11:51:37.220Z,15.10
2023-02-24T11:54:09.132Z,15.20
2023-02-24T11:56:46.199Z,15.20
2023-02-24T11:59:39.395Z,15.40
2023-02-24T12:02:30.480Z,15.40
2023-02-24T12:05:07.777Z,15.50
2023-02-24T12:07:39.009Z,15.40
2023-02-24T12:10:22.901Z,15.30
2023-02-24T12:13:28.775Z,15.30
2023-02-24T12:16:09.945Z,15.20
2023-02-24T12:18:41.499Z,14.90
2023-02-24T12:21:44.298Z,14.80
2023-02-24T12:24:17.301Z,14.70
2023-02-24T12:27:08.294Z,14.60
2023-02-24T12:29:54.866Z,14.60
2023-02-24T12:32:48.341Z,14.50
2023-02-24T12:35:21.254Z,14.50
2023-02-24T12:38:12.811Z,14.60
2023-02-24T12:40:57.322Z,14.60
2023-02-24T12:43:35.061Z,14.60
2023-02-24T12:46:10.107Z,14.60
2023-02-24T12:48:41.601Z,14.70
2023-02-24T12:51:28.760Z,14.80
2023-02-24T12:54:09.140Z,15.00
2023-02-24T12:56:59.085Z,15.30
2023-02-24T12:59:30.909Z,15.50
2023-02-24T13:02:25.516Z,15.80
2023-02-24T13:05:06.013Z,16.20
2023-02-24T13:07:44.962Z,16.50
2023-02-24T13:10:30.972Z,16.70
2023-02-24T13:13:11.881Z,16.80
2023-02-24T13:15:43.278Z,16.90
2023-02-24T13:18:12.075Z,17.10
2023-02-24T13:20:41.882Z,17.20
2023-02-24T13:23:22.943Z,17.30
2023-02-24T13:25:53.196Z,17.60
2023-02-24T13:28:25.257Z,17.80
2023-02-24T13:31:04.716Z,18.00
2023-02-24T13:33:35.922Z,18.00
2023-02-24T13:36:10.556Z,18.00
2023-02-24T13:38:42.483Z,18.10
2023-02-24T13:41:32.672Z,18.30
2023-02-24T13:44:03.545Z,18.40
2023-02-24T13:46:38.424Z,18.60
2023-02-24T13:49:10.270Z,18.70
2023-02-24T13:51:48.519Z,18.80
2023-02-24T13:54:32.138Z,18.70
2023-02-24T13:57:24.204Z,18.70
2023-02-24T14:00:11.363Z,18.70
2023-02-24T14:02:44.486Z,18.70
2023-02-24T14:05:16.399Z,18.50
2023-02-24T14:07:48.562Z,18.30
2023-02-24T14:10:20.607Z,18.10
2023-02-24T14:12:50.041Z,18.00
2023-02-24T14:15:24.682Z,17.90
2023-02-24T14:18:01.642Z,17.70
2023-02-24T14:20:35.688Z,17.60
2023-02-24T14:23:04.274Z,17.50
2023-02-24T14:25:38.897Z,17.50
2023-02-24T14:28:06.956Z,17.40
2023-02-24T14:30:39.175Z,17.30
2023-02-24T14:33:11.002Z,17.20
2023-02-24T14:35:49.608Z,17.10
2023-02-24T14:38:41.155Z,17.00
2023-02-24T14:41:28.150Z,16.90
2023-02-24T14:43:56.761Z,16.70
2023-02-24T14:46:26.127Z,16.50
2023-02-24T14:48:56.439Z,16.40
2023-02-24T14:51:32.282Z,16.20
2023-02-24T14:54:03.827Z,16.10
2023-02-24T14:56:34.170Z,16.00
2023-02-24T14:59:18.071Z,15.90
2023-02-24T15:01:54.942Z,15.80
2023-02-24T15:04:38.161Z,15.70
2023-02-24T15:07:09.619Z,15.60
2023-02-24T15:09:43.868Z,15.60
2023-02-24T15:12:15.833Z,15.50
2023-02-24T15:14:47.478Z,15.50
2023-02-24T15:17:18.428Z,15.40
2023-02-24T15:19:48.266Z,15.40
2023-02-24T15:22:29.087Z,15.30
2023-02-24T15:25:10.526Z,15.40
2023-02-24T15:27:40.552Z,15.30
2023-02-24T15:30:12.604Z,15.20
2023-02-24T15:32:40.720Z,15.20
2023-02-24T15:35:12.428Z,15.20
2023-02-24T15:37:46.694Z,15.20
2023-02-24T15:40:24.151Z,15.20
2023-02-24T15:43:00.916Z,15.20
2023-02-24T15:45:34.947Z,15.20
2023-02-24T15:48:05.476Z,15.20
2023-02-24T15:50:34.843Z,15.20
2023-02-24T15:53:05.041Z,15.20
2023-02-24T15:55:34.055Z,15.20
2023-02-24T15:58:04.026Z,15.10
2023-02-24T16:00:35.103Z,15.00
2023-02-24T16:03:22.862Z,15.00
2023-02-24T16:05:50.800Z,14.80
2023-02-24T16:08:20.649Z,14.80
2023-02-24T16:10:50.219Z,14.80
2023-02-24T16:13:21.501Z,14.80
2023-02-24T16:15:51.092Z,14.80
2023-02-24T16:18:24.336Z,14.80
2023-02-24T16:20:57.344Z,14.80
2023-02-24T16:23:27.367Z,14.80
2023-02-24T16:26:00.040Z,14.80
2023-02-24T16:28:28.009Z,14.80
2023-02-24T16:30:56.215Z,14.80
2023-02-24T16:33:24.665Z,14.70
2023-02-24T16:35:55.604Z,14.70
2023-02-24T16:38:27.136Z,14.80
2023-02-24T16:40:55.493Z,14.70
2023-02-24T16:43:25.198Z,14.80
2023-02-24T16:45:57.098Z,14.80
2023-02-24T16:48:27.037Z,14.70
2023-02-24T16:50:55.508Z,14.70
2023-02-24T16:53:27.570Z,14.70
2023-02-24T16:55:55.628Z,14.70
2023-02-24T16:58:25.104Z,14.70
2023-02-24T17:00:56.562Z,14.60
2023-02-24T17:03:27.350Z,14.60
2023-02-24T17:05:58.936Z,14.60
2023-02-24T17:08:27.980Z,14.60
2023-02-24T17:10:56.448Z,14.60
2023-02-24T17:13:25.102Z,14.50
2023-02-24T17:15:57.530Z,14.50
2023-02-24T17:18:26.871Z,14.50
2023-02-24T17:20:54.436Z,14.50
2023-02-24T17:23:22.702Z,14.50
2023-02-24T17:25:56.708Z,14.50
2023-02-24T17:28:27.102Z,14.50
2023-02-24T17:30:55.627Z,14.50
2023-02-24T17:33:23.810Z,14.50
2023-02-24T17:35:51.727Z,14.50
2023-02-24T17:38:23.169Z,14.50
2023-02-24T17:40:51.281Z,14.50
2023-02-24T17:43:19.783Z,14.50
2023-02-24T17:45:48.685Z,14.50
2023-02-24T17:48:16.990Z,14.50
2023-02-24T17:51:05.225Z,14.40
2023-02-24T17:53:33.807Z,14.40
2023-02-24T17:56:04.743Z,14.40
2023-02-24T17:58:33.311Z,14.40
2023-02-24T18:01:02.646Z,14.40
2023-02-24T18:03:31.175Z,14.40
2023-02-24T18:06:07.276Z,14.40
2023-02-24T18:08:36.277Z,14.30
2023-02-24T18:11:05.192Z,14.30
2023-02-24T18:13:33.594Z,14.30
2023-02-24T18:16:05.156Z,14.30
2023-02-24T18:18:33.119Z,14.30
2023-02-24T18:21:05.696Z,14.20
2023-02-24T18:23:34.131Z,14.20
2023-02-24T18:26:03.738Z,14.10
2023-02-24T18:28:32.844Z,14.10
2023-02-24T18:31:01.356Z,14.10
2023-02-24T18:33:52.633Z,14.00
2023-02-24T18:36:20.729Z,13.90
2023-02-24T18:38:48.778Z,13.90
2023-02-24T18:41:29.808Z,14.00
2023-02-24T18:43:59.513Z,14.00
2023-02-24T18:46:28.093Z,14.00
2023-02-24T18:48:57.103Z,14.00
2023-02-24T18:51:28.852Z,14.00
2023-02-24T18:54:00.752Z,14.00
2023-02-24T18:56:31.468Z,13.90
2023-02-24T18:59:00.772Z,13.90
2023-02-24T19:01:35.493Z,13.90
2023-02-24T19:04:04.890Z,13.90
2023-02-24T19:06:38.459Z,13.90
2023-02-24T19:09:11.625Z,13.80
2023-02-24T19:11:53.642Z,13.80
2023-02-24T19:14:28.431Z,13.80
2023-02-24T19:17:17.403Z,13.80
2023-02-24T19:19:46.868Z,13.80
2023-02-24T19:22:16.394Z,13.80
2023-02-24T19:24:44.870Z,13.80
2023-02-24T19:27:13.308Z,13.80
2023-02-24T19:29:42.569Z,13.90
2023-02-24T19:32:11.391Z,13.80
2023-02-24T19:34:58.643Z,13.80
2023-02-24T19:37:26.833Z,13.80
2023-02-24T19:39:56.166Z,13.80
2023-02-24T19:42:25.170Z,13.80
2023-02-24T19:44:55.777Z,13.80
2023-02-24T19:47:23.767Z,13.80
2023-02-24T19:49:52.388Z,13.70
2023-02-24T19:52:20.502Z,13.70
2023-02-24T19:54:48.915Z,13.80
2023-02-24T19:57:16.856Z,13.80
2023-02-24T19:59:45.174Z,13.80
2023-02-24T20:02:13.956Z,13.80
2023-02-24T20:04:45.079Z,13.80
2023-02-24T20:07:15.336Z,13.80
2023-02-24T20:09:44.161Z,13.80
2023-02-24T20:12:12.307Z,13.70
2023-02-24T20:14:40.572Z,13.70
2023-02-24T20:17:09.462Z,13.70
2023-02-24T20:19:38.330Z,13.70
2023-02-24T20:22:08.816Z,13.70
2023-02-24T20:24:37.609Z,13.70
2023-02-24T20:27:08.880Z,13.70
2023-02-24T20:29:36.811Z,13.70
2023-02-24T20:32:04.873Z,13.70
2023-02-24T20:34:36.952Z,13.70
2023-02-24T20:37:06.788Z,13.70
2023-02-24T20:39:35.658Z,13.70
2023-02-24T20:42:06.420Z,13.70
2023-02-24T20:44:34.558Z,13.70
2023-02-24T20:47:02.572Z,13.70
2023-02-24T20:49:34.577Z,13.60
2023-02-24T20:52:01.961Z,13.60
2023-02-24T20:54:29.818Z,13.60
2023-02-24T20:56:57.660Z,13.60
2023-02-24T20:59:26.992Z,13.60
2023-02-24T21:01:55.030Z,13.60
2023-02-24T21:04:22.880Z,13.60
2023-02-24T21:06:52.181Z,13.60
2023-02-24T21:09:20.362Z,13.60
2023-02-24T21:11:47.987Z,13.50
2023-02-24T21:14:16.807Z,13.50
2023-02-24T21:16:46.474Z,13.50
2023-02-24T21:19:15.161Z,13.40
2023-02-24T21:21:42.972Z,13.40
2023-02-24T21:24:11.760Z,13.40
2023-02-24T21:26:39.840Z,13.40
2023-02-24T21:29:08.759Z,13.40
2023-02-24T21:31:36.805Z,13.40
2023-02-24T21:34:04.797Z,13.40
2023-02-24T21:36:32.272Z,13.40
2023-02-24T21:39:01.251Z,13.30
2023-02-24T21:41:29.700Z,13.30
2023-02-24T21:44:00.393Z,13.30
2023-02-24T21:46:28.962Z,13.30
2023-02-24T21:49:00.573Z,13.30
2023-02-24T21:51:29.533Z,13.30
2023-02-24T21:53:58.502Z,13.30
2023-02-24T21:56:30.125Z,13.30
2023-02-24T21:59:07.412Z,13.30
2023-02-24T22:01:45.981Z,13.30
2023-02-24T22:04:17.040Z,13.30
2023-02-24T22:06:46.916Z,13.30
2023-02-24T22:09:20.064Z,13.20
2023-02-24T22:11:49.056Z,13.20
2023-02-24T22:14:17.890Z,13.20
2023-02-24T22:16:46.385Z,13.20
2023-02-24T22:19:14.358Z,13.20
2023-02-24T22:21:44.347Z,13.20
2023-02-24T22:24:18.044Z,13.20
2023-02-24T22:26:49.159Z,13.20
2023-02-24T22:29:17.945Z,13.20
2023-02-24T22:31:49.800Z,13.20
2023-02-24T22:34:19.756Z,13.20
2023-02-24T22:36:53.829Z,13.20
2023-02-24T22:39:27.675Z,13.20
2023-02-24T22:41:55.800Z,13.20
2023-02-24T22:44:32.244Z,13.10
2023-02-24T22:47:02.551Z,13.10
2023-02-24T22:49:44.868Z,13.10
2023-02-24T22:52:18.595Z,13.10
2023-02-24T22:54:46.893Z,13.10
2023-02-24T22:57:14.640Z,13.10
2023-02-24T22:59:42.724Z,13.00
2023-02-24T23:02:10.377Z,13.00
2023-02-24T23:04:50.440Z,13.00
2023-02-24T23:07:39.233Z,13.00
2023-02-24T23:10:09.900Z,12.90
2023-02-24T23:12:37.983Z,12.90
2023-02-24T23:15:06.763Z,12.90
2023-02-24T23:17:35.200Z,12.80
2023-02-24T23:20:23.063Z,12.90
2023-02-24T23:22:57.304Z,12.80
2023-02-24T23:25:25.316Z,12.80
2023-02-24T23:27:54.471Z,12.80
2023-02-24T23:30:26.602Z,12.80
2023-02-24T23:32:54.463Z,12.80
2023-02-24T23:35:22.697Z,12.80
2023-02-24T23:37:51.843Z,12.80
2023-02-24T23:40:23.029Z,12.70
2023-02-24T23:42:51.658Z,12.70
2023-02-24T23:45:19.960Z,12.70
2023-02-24T23:47:48.010Z,12.70
2023-02-24T23:50:20.732Z,12.70
2023-02-24T23:52:55.429Z,12.70
2023-02-24T23:55:23.850Z,12.70
2023-02-24T23:57:54.814Z,12.70
